sensor_id;sensor_type;location;lat;lon;timestamp;P1;durP1;ratioP1;P2;durP2;ratioP2
70303;SDS011;57712;48.752;11.348;2023-01-28T00:01:15;20.77;;;8.57;;
70303;SDS011;57712;48.752;11.348;2023-01-28T00:03:42;23.05;;;9.23;;
70303;SDS011;57712;48.752;11.348;2023-01-28T00:06:11;21.65;;;8.75;;
70303;SDS011;57712;48.752;11.348;2023-01-28T00:08:40;19.50;;;8.48;;
70303;SDS011;57712;48.752;11.348;2023-01-28T00:11:07;22.65;;;9.40;;
70303;SDS011;57712;48.752;11.348;2023-01-28T00:13:36;19.90;;;9.07;;
70303;SDS011;57712;48.752;11.348;2023-01-28T00:16:04;21.35;;;9.15;;
70303;SDS011;57712;48.752;11.348;2023-01-28T00:18:34;24.50;;;9.98;;
70303;SDS011;57712;48.752;11.348;2023-01-28T00:21:05;24.63;;;10.00;;
70303;SDS011;57712;48.752;11.348;2023-01-28T00:23:34;22.98;;;10.05;;
70303;SDS011;57712;48.752;11.348;2023-01-28T00:26:06;24.80;;;10.68;;
70303;SDS011;57712;48.752;11.348;2023-01-28T00:28:36;23.13;;;10.23;;
70303;SDS011;57712;48.752;11.348;2023-01-28T00:31:11;23.48;;;9.82;;
70303;SDS011;57712;48.752;11.348;2023-01-28T00:33:42;20.23;;;8.85;;
70303;SDS011;57712;48.752;11.348;2023-01-28T00:36:10;17.93;;;7.83;;
70303;SDS011;57712;48.752;11.348;2023-01-28T00:38:37;18.25;;;7.28;;
70303;SDS011;57712;48.752;11.348;2023-01-28T00:41:07;18.50;;;7.45;;
70303;SDS011;57712;48.752;11.348;2023-01-28T00:43:36;19.30;;;7.55;;
70303;SDS011;57712;48.752;11.348;2023-01-28T00:46:04;14.95;;;6.43;;
70303;SDS011;57712;48.752;11.348;2023-01-28T00:48:33;17.83;;;7.33;;
70303;SDS011;57712;48.752;11.348;2023-01-28T00:51:00;17.08;;;6.63;;
70303;SDS011;57712;48.752;11.348;2023-01-28T00:53:27;18.52;;;7.15;;
70303;SDS011;57712;48.752;11.348;2023-01-28T00:55:53;14.50;;;6.20;;
70303;SDS011;57712;48.752;11.348;2023-01-28T00:58:20;16.45;;;7.47;;
70303;SDS011;57712;48.752;11.348;2023-01-28T01:00:49;17.83;;;7.00;;
70303;SDS011;57712;48.752;11.348;2023-01-28T01:03:16;16.10;;;6.43;;
70303;SDS011;57712;48.752;11.348;2023-01-28T01:05:44;18.02;;;7.07;;
70303;SDS011;57712;48.752;11.348;2023-01-28T01:08:11;15.73;;;6.13;;
70303;SDS011;57712;48.752;11.348;2023-01-28T01:10:38;17.13;;;6.40;;
70303;SDS011;57712;48.752;11.348;2023-01-28T01:13:05;16.42;;;6.78;;
70303;SDS011;57712;48.752;11.348;2023-01-28T01:15:32;16.73;;;7.03;;
70303;SDS011;57712;48.752;11.348;2023-01-28T01:17:59;16.13;;;6.32;;
70303;SDS011;57712;48.752;11.348;2023-01-28T01:20:27;15.82;;;5.95;;
70303;SDS011;57712;48.752;11.348;2023-01-28T01:22:58;16.15;;;6.90;;
70303;SDS011;57712;48.752;11.348;2023-01-28T01:25:25;14.85;;;5.93;;
70303;SDS011;57712;48.752;11.348;2023-01-28T01:27:51;14.95;;;6.05;;
70303;SDS011;57712;48.752;11.348;2023-01-28T01:30:18;14.50;;;5.93;;
70303;SDS011;57712;48.752;11.348;2023-01-28T01:32:45;15.00;;;5.40;;
70303;SDS011;57712;48.752;11.348;2023-01-28T01:35:12;14.23;;;6.25;;
70303;SDS011;57712;48.752;11.348;2023-01-28T01:37:42;13.47;;;5.80;;
70303;SDS011;57712;48.752;11.348;2023-01-28T01:40:09;15.02;;;5.32;;
70303;SDS011;57712;48.752;11.348;2023-01-28T01:42:36;15.65;;;5.75;;
70303;SDS011;57712;48.752;11.348;2023-01-28T01:45:04;14.32;;;5.63;;
70303;SDS011;57712;48.752;11.348;2023-01-28T01:50:22;15.85;;;6.18;;
70303;SDS011;57712;48.752;11.348;2023-01-28T01:52:55;14.10;;;5.30;;
70303;SDS011;57712;48.752;11.348;2023-01-28T01:55:25;12.43;;;5.28;;
70303;SDS011;57712;48.752;11.348;2023-01-28T01:57:54;13.52;;;5.43;;
70303;SDS011;57712;48.752;11.348;2023-01-28T02:00:23;15.32;;;5.55;;
70303;SDS011;57712;48.752;11.348;2023-01-28T02:02:50;13.73;;;5.63;;
70303;SDS011;57712;48.752;11.348;2023-01-28T02:05:18;14.00;;;5.45;;
70303;SDS011;57712;48.752;11.348;2023-01-28T02:07:49;12.63;;;5.28;;
70303;SDS011;57712;48.752;11.348;2023-01-28T02:10:20;12.57;;;5.38;;
70303;SDS011;57712;48.752;11.348;2023-01-28T02:12:49;12.48;;;5.30;;
70303;SDS011;57712;48.752;11.348;2023-01-28T02:15:21;12.98;;;5.22;;
70303;SDS011;57712;48.752;11.348;2023-01-28T02:17:51;13.05;;;4.85;;
70303;SDS011;57712;48.752;11.348;2023-01-28T02:20:21;13.20;;;5.40;;
70303;SDS011;57712;48.752;11.348;2023-01-28T02:25:57;13.98;;;5.63;;
70303;SDS011;57712;48.752;11.348;2023-01-28T02:28:40;12.07;;;4.63;;
70303;SDS011;57712;48.752;11.348;2023-01-28T02:31:30;11.52;;;4.93;;
70303;SDS011;57712;48.752;11.348;2023-01-28T02:34:24;12.63;;;5.78;;
70303;SDS011;57712;48.752;11.348;2023-01-28T02:37:11;13.15;;;5.80;;
70303;SDS011;57712;48.752;11.348;2023-01-28T02:39:44;12.07;;;5.03;;
70303;SDS011;57712;48.752;11.348;2023-01-28T02:42:25;12.23;;;5.75;;
70303;SDS011;57712;48.752;11.348;2023-01-28T02:44:55;11.57;;;5.40;;
70303;SDS011;57712;48.752;11.348;2023-01-28T02:47:21;12.55;;;4.95;;
70303;SDS011;57712;48.752;11.348;2023-01-28T02:50:13;12.95;;;5.30;;
70303;SDS011;57712;48.752;11.348;2023-01-28T02:53:07;12.52;;;5.32;;
70303;SDS011;57712;48.752;11.348;2023-01-28T02:56:20;18.37;;;6.83;;
70303;SDS011;57712;48.752;11.348;2023-01-28T02:59:02;13.82;;;5.60;;
70303;SDS011;57712;48.752;11.348;2023-01-28T03:02:06;12.63;;;4.85;;
70303;SDS011;57712;48.752;11.348;2023-01-28T03:07:27;12.30;;;5.30;;
70303;SDS011;57712;48.752;11.348;2023-01-28T03:09:57;12.65;;;5.68;;
70303;SDS011;57712;48.752;11.348;2023-01-28T03:12:29;12.88;;;5.40;;
70303;SDS011;57712;48.752;11.348;2023-01-28T03:15:21;11.77;;;4.95;;
70303;SDS011;57712;48.752;11.348;2023-01-28T03:18:10;12.77;;;6.20;;
70303;SDS011;57712;48.752;11.348;2023-01-28T03:24:40;14.00;;;5.37;;
70303;SDS011;57712;48.752;11.348;2023-01-28T03:33:04;46.30;;;15.43;;
70303;SDS011;57712;48.752;11.348;2023-01-28T03:35:50;53.40;;;18.17;;
70303;SDS011;57712;48.752;11.348;2023-01-28T03:38:36;24.38;;;9.32;;
70303;SDS011;57712;48.752;11.348;2023-01-28T03:41:19;19.33;;;8.85;;
70303;SDS011;57712;48.752;11.348;2023-01-28T03:43:47;14.80;;;7.88;;
70303;SDS011;57712;48.752;11.348;2023-01-28T03:46:14;16.17;;;7.53;;
70303;SDS011;57712;48.752;11.348;2023-01-28T03:48:41;14.20;;;5.40;;
70303;SDS011;57712;48.752;11.348;2023-01-28T03:51:08;19.37;;;9.50;;
70303;SDS011;57712;48.752;11.348;2023-01-28T03:53:34;13.10;;;5.97;;
70303;SDS011;57712;48.752;11.348;2023-01-28T03:56:00;13.82;;;6.40;;
70303;SDS011;57712;48.752;11.348;2023-01-28T03:58:27;12.57;;;5.53;;
70303;SDS011;57712;48.752;11.348;2023-01-28T04:01:11;14.98;;;6.30;;
70303;SDS011;57712;48.752;11.348;2023-01-28T04:03:38;13.25;;;5.55;;
70303;SDS011;57712;48.752;11.348;2023-01-28T04:06:06;14.52;;;6.22;;
70303;SDS011;57712;48.752;11.348;2023-01-28T04:08:34;14.20;;;6.10;;
70303;SDS011;57712;48.752;11.348;2023-01-28T04:11:01;17.75;;;8.07;;
70303;SDS011;57712;48.752;11.348;2023-01-28T04:13:41;12.82;;;6.13;;
70303;SDS011;57712;48.752;11.348;2023-01-28T04:16:08;16.33;;;6.83;;
70303;SDS011;57712;48.752;11.348;2023-01-28T04:18:36;13.35;;;5.93;;
70303;SDS011;57712;48.752;11.348;2023-01-28T04:21:03;12.90;;;5.50;;
70303;SDS011;57712;48.752;11.348;2023-01-28T04:23:29;13.93;;;5.88;;
70303;SDS011;57712;48.752;11.348;2023-01-28T04:25:56;14.07;;;5.78;;
70303;SDS011;57712;48.752;11.348;2023-01-28T04:28:23;14.38;;;7.05;;
70303;SDS011;57712;48.752;11.348;2023-01-28T04:30:50;13.00;;;5.82;;
70303;SDS011;57712;48.752;11.348;2023-01-28T04:33:17;13.02;;;5.85;;
70303;SDS011;57712;48.752;11.348;2023-01-28T04:35:44;13.88;;;5.57;;
70303;SDS011;57712;48.752;11.348;2023-01-28T04:38:10;12.00;;;5.20;;
70303;SDS011;57712;48.752;11.348;2023-01-28T04:40:37;13.13;;;5.63;;
70303;SDS011;57712;48.752;11.348;2023-01-28T04:43:03;12.93;;;5.38;;
70303;SDS011;57712;48.752;11.348;2023-01-28T04:45:30;12.57;;;5.63;;
70303;SDS011;57712;48.752;11.348;2023-01-28T04:47:56;15.35;;;5.93;;
70303;SDS011;57712;48.752;11.348;2023-01-28T04:50:23;13.80;;;6.05;;
70303;SDS011;57712;48.752;11.348;2023-01-28T04:52:49;15.07;;;6.27;;
70303;SDS011;57712;48.752;11.348;2023-01-28T04:55:16;12.70;;;5.93;;
70303;SDS011;57712;48.752;11.348;2023-01-28T04:57:43;14.98;;;6.22;;
70303;SDS011;57712;48.752;11.348;2023-01-28T05:00:11;18.20;;;7.97;;
70303;SDS011;57712;48.752;11.348;2023-01-28T05:02:38;13.77;;;6.10;;
70303;SDS011;57712;48.752;11.348;2023-01-28T05:05:05;14.60;;;6.03;;
70303;SDS011;57712;48.752;11.348;2023-01-28T05:07:34;13.73;;;6.38;;
70303;SDS011;57712;48.752;11.348;2023-01-28T05:10:02;15.63;;;6.82;;
70303;SDS011;57712;48.752;11.348;2023-01-28T05:12:29;11.75;;;5.25;;
70303;SDS011;57712;48.752;11.348;2023-01-28T05:14:58;14.25;;;5.80;;
70303;SDS011;57712;48.752;11.348;2023-01-28T05:17:29;12.53;;;5.80;;
70303;SDS011;57712;48.752;11.348;2023-01-28T05:19:55;13.95;;;6.15;;
70303;SDS011;57712;48.752;11.348;2023-01-28T05:22:22;12.85;;;5.88;;
70303;SDS011;57712;48.752;11.348;2023-01-28T05:24:48;13.70;;;5.88;;
70303;SDS011;57712;48.752;11.348;2023-01-28T05:27:15;13.50;;;6.35;;
70303;SDS011;57712;48.752;11.348;2023-01-28T05:29:41;13.50;;;5.65;;
70303;SDS011;57712;48.752;11.348;2023-01-28T05:32:08;15.93;;;6.60;;
70303;SDS011;57712;48.752;11.348;2023-01-28T05:34:35;13.18;;;6.03;;
70303;SDS011;57712;48.752;11.348;2023-01-28T05:37:01;15.45;;;5.72;;
70303;SDS011;57712;48.752;11.348;2023-01-28T05:39:28;14.95;;;5.97;;
70303;SDS011;57712;48.752;11.348;2023-01-28T05:41:55;14.70;;;5.80;;
70303;SDS011;57712;48.752;11.348;2023-01-28T05:44:21;13.38;;;5.57;;
70303;SDS011;57712;48.752;11.348;2023-01-28T05:46:48;14.75;;;6.35;;
70303;SDS011;57712;48.752;11.348;2023-01-28T05:49:14;14.52;;;5.93;;
70303;SDS011;57712;48.752;11.348;2023-01-28T05:51:42;13.55;;;5.78;;
70303;SDS011;57712;48.752;11.348;2023-01-28T05:54:08;18.00;;;7.43;;
70303;SDS011;57712;48.752;11.348;2023-01-28T05:56:35;14.00;;;5.88;;
70303;SDS011;57712;48.752;11.348;2023-01-28T05:59:02;16.67;;;6.70;;
70303;SDS011;57712;48.752;11.348;2023-01-28T06:01:29;15.15;;;6.35;;
70303;SDS011;57712;48.752;11.348;2023-01-28T06:03:56;16.35;;;6.82;;
70303;SDS011;57712;48.752;11.348;2023-01-28T06:06:22;17.38;;;6.90;;
70303;SDS011;57712;48.752;11.348;2023-01-28T06:08:49;13.27;;;5.68;;
70303;SDS011;57712;48.752;11.348;2023-01-28T06:11:15;13.10;;;6.03;;
70303;SDS011;57712;48.752;11.348;2023-01-28T06:13:44;13.93;;;6.10;;
70303;SDS011;57712;48.752;11.348;2023-01-28T06:16:11;16.35;;;6.63;;
70303;SDS011;57712;48.752;11.348;2023-01-28T06:18:39;13.18;;;6.00;;
70303;SDS011;57712;48.752;11.348;2023-01-28T06:21:06;14.40;;;5.68;;
70303;SDS011;57712;48.752;11.348;2023-01-28T06:23:33;13.40;;;5.60;;
70303;SDS011;57712;48.752;11.348;2023-01-28T06:25:59;14.00;;;5.85;;
70303;SDS011;57712;48.752;11.348;2023-01-28T06:28:26;14.40;;;6.10;;
70303;SDS011;57712;48.752;11.348;2023-01-28T06:30:52;14.45;;;6.38;;
70303;SDS011;57712;48.752;11.348;2023-01-28T06:33:19;13.90;;;5.65;;
70303;SDS011;57712;48.752;11.348;2023-01-28T06:35:46;13.73;;;5.80;;
70303;SDS011;57712;48.752;11.348;2023-01-28T06:38:13;14.32;;;6.18;;
70303;SDS011;57712;48.752;11.348;2023-01-28T06:40:39;12.65;;;6.35;;
70303;SDS011;57712;48.752;11.348;2023-01-28T06:43:06;15.35;;;6.35;;
70303;SDS011;57712;48.752;11.348;2023-01-28T06:45:33;14.15;;;6.00;;
70303;SDS011;57712;48.752;11.348;2023-01-28T06:47:59;14.00;;;6.13;;
70303;SDS011;57712;48.752;11.348;2023-01-28T06:50:26;14.55;;;6.22;;
70303;SDS011;57712;48.752;11.348;2023-01-28T06:52:52;13.85;;;6.43;;
70303;SDS011;57712;48.752;11.348;2023-01-28T06:55:19;17.42;;;8.90;;
70303;SDS011;57712;48.752;11.348;2023-01-28T06:57:45;23.08;;;12.95;;
70303;SDS011;57712;48.752;11.348;2023-01-28T07:00:12;19.70;;;8.93;;
70303;SDS011;57712;48.752;11.348;2023-01-28T07:02:42;16.15;;;8.13;;
70303;SDS011;57712;48.752;11.348;2023-01-28T07:05:08;15.90;;;7.93;;
70303;SDS011;57712;48.752;11.348;2023-01-28T07:07:35;15.98;;;8.18;;
70303;SDS011;57712;48.752;11.348;2023-01-28T07:10:02;16.00;;;7.28;;
70303;SDS011;57712;48.752;11.348;2023-01-28T07:12:29;18.27;;;8.95;;
70303;SDS011;57712;48.752;11.348;2023-01-28T07:14:55;15.73;;;7.50;;
70303;SDS011;57712;48.752;11.348;2023-01-28T07:17:22;19.45;;;8.45;;
70303;SDS011;57712;48.752;11.348;2023-01-28T07:19:48;14.60;;;7.07;;
70303;SDS011;57712;48.752;11.348;2023-01-28T07:22:15;15.73;;;6.93;;
70303;SDS011;57712;48.752;11.348;2023-01-28T07:24:41;16.58;;;7.55;;
70303;SDS011;57712;48.752;11.348;2023-01-28T07:27:08;16.65;;;6.85;;
70303;SDS011;57712;48.752;11.348;2023-01-28T07:29:34;16.00;;;6.95;;
70303;SDS011;57712;48.752;11.348;2023-01-28T07:32:01;17.27;;;7.32;;
70303;SDS011;57712;48.752;11.348;2023-01-28T07:34:27;15.25;;;6.75;;
70303;SDS011;57712;48.752;11.348;2023-01-28T07:36:54;13.15;;;6.88;;
70303;SDS011;57712;48.752;11.348;2023-01-28T07:39:22;15.57;;;6.53;;
70303;SDS011;57712;48.752;11.348;2023-01-28T07:41:49;17.00;;;8.15;;
70303;SDS011;57712;48.752;11.348;2023-01-28T07:44:15;17.80;;;8.93;;
70303;SDS011;57712;48.752;11.348;2023-01-28T07:46:42;16.73;;;7.88;;
70303;SDS011;57712;48.752;11.348;2023-01-28T07:49:08;18.35;;;7.40;;
70303;SDS011;57712;48.752;11.348;2023-01-28T07:51:35;16.52;;;7.50;;
70303;SDS011;57712;48.752;11.348;2023-01-28T07:54:01;17.25;;;8.48;;
70303;SDS011;57712;48.752;11.348;2023-01-28T07:56:29;18.73;;;8.57;;
70303;SDS011;57712;48.752;11.348;2023-01-28T07:58:56;17.75;;;8.18;;
70303;SDS011;57712;48.752;11.348;2023-01-28T08:01:22;18.80;;;9.93;;
70303;SDS011;57712;48.752;11.348;2023-01-28T08:03:49;17.23;;;8.95;;
70303;SDS011;57712;48.752;11.348;2023-01-28T08:06:16;19.83;;;9.25;;
70303;SDS011;57712;48.752;11.348;2023-01-28T08:08:42;19.40;;;8.93;;
70303;SDS011;57712;48.752;11.348;2023-01-28T08:11:09;16.55;;;8.07;;
70303;SDS011;57712;48.752;11.348;2023-01-28T08:13:36;18.95;;;9.23;;
70303;SDS011;57712;48.752;11.348;2023-01-28T08:16:03;18.90;;;9.27;;
70303;SDS011;57712;48.752;11.348;2023-01-28T08:18:30;19.08;;;9.05;;
70303;SDS011;57712;48.752;11.348;2023-01-28T08:20:57;18.35;;;8.50;;
70303;SDS011;57712;48.752;11.348;2023-01-28T08:23:24;21.77;;;10.20;;
70303;SDS011;57712;48.752;11.348;2023-01-28T08:25:52;16.23;;;7.97;;
70303;SDS011;57712;48.752;11.348;2023-01-28T08:28:19;18.88;;;8.73;;
70303;SDS011;57712;48.752;11.348;2023-01-28T08:30:47;18.50;;;8.95;;
70303;SDS011;57712;48.752;11.348;2023-01-28T08:33:16;17.55;;;8.50;;
70303;SDS011;57712;48.752;11.348;2023-01-28T08:35:43;19.17;;;8.80;;
70303;SDS011;57712;48.752;11.348;2023-01-28T08:38:11;20.10;;;9.82;;
70303;SDS011;57712;48.752;11.348;2023-01-28T08:40:40;20.15;;;9.27;;
70303;SDS011;57712;48.752;11.348;2023-01-28T08:43:07;18.10;;;8.82;;
70303;SDS011;57712;48.752;11.348;2023-01-28T08:45:33;22.97;;;10.03;;
70303;SDS011;57712;48.752;11.348;2023-01-28T08:48:01;20.77;;;9.40;;
70303;SDS011;57712;48.752;11.348;2023-01-28T08:50:30;20.40;;;10.25;;
70303;SDS011;57712;48.752;11.348;2023-01-28T08:53:02;18.75;;;9.35;;
70303;SDS011;57712;48.752;11.348;2023-01-28T08:55:33;17.58;;;8.68;;
70303;SDS011;57712;48.752;11.348;2023-01-28T08:58:03;18.30;;;8.52;;
70303;SDS011;57712;48.752;11.348;2023-01-28T09:00:32;15.88;;;7.70;;
70303;SDS011;57712;48.752;11.348;2023-01-28T09:02:59;17.55;;;8.25;;
70303;SDS011;57712;48.752;11.348;2023-01-28T09:05:29;17.83;;;7.78;;
70303;SDS011;57712;48.752;11.348;2023-01-28T09:08:02;16.70;;;7.57;;
70303;SDS011;57712;48.752;11.348;2023-01-28T09:10:29;17.03;;;7.53;;
70303;SDS011;57712;48.752;11.348;2023-01-28T09:12:56;17.10;;;7.40;;
70303;SDS011;57712;48.752;11.348;2023-01-28T09:15:23;16.33;;;7.78;;
70303;SDS011;57712;48.752;11.348;2023-01-28T09:17:55;19.17;;;8.50;;
70303;SDS011;57712;48.752;11.348;2023-01-28T09:20:23;16.45;;;7.65;;
70303;SDS011;57712;48.752;11.348;2023-01-28T09:22:49;13.73;;;6.87;;
70303;SDS011;57712;48.752;11.348;2023-01-28T09:25:16;16.30;;;6.80;;
70303;SDS011;57712;48.752;11.348;2023-01-28T09:27:42;15.85;;;6.90;;
70303;SDS011;57712;48.752;11.348;2023-01-28T09:30:12;18.75;;;7.43;;
70303;SDS011;57712;48.752;11.348;2023-01-28T09:32:39;20.42;;;11.27;;
70303;SDS011;57712;48.752;11.348;2023-01-28T09:35:06;16.20;;;8.07;;
70303;SDS011;57712;48.752;11.348;2023-01-28T09:37:33;21.58;;;9.40;;
70303;SDS011;57712;48.752;11.348;2023-01-28T09:40:00;17.92;;;9.00;;
70303;SDS011;57712;48.752;11.348;2023-01-28T09:47:44;16.85;;;7.68;;
70303;SDS011;57712;48.752;11.348;2023-01-28T09:52:49;16.77;;;8.15;;
70303;SDS011;57712;48.752;11.348;2023-01-28T09:55:33;17.02;;;8.45;;
70303;SDS011;57712;48.752;11.348;2023-01-28T09:58:05;17.58;;;8.10;;
70303;SDS011;57712;48.752;11.348;2023-01-28T10:03:32;29.13;;;13.57;;
70303;SDS011;57712;48.752;11.348;2023-01-28T10:09:21;18.25;;;8.98;;
70303;SDS011;57712;48.752;11.348;2023-01-28T10:17:33;17.40;;;7.55;;
70303;SDS011;57712;48.752;11.348;2023-01-28T10:20:20;21.85;;;10.15;;
70303;SDS011;57712;48.752;11.348;2023-01-28T10:25:42;25.00;;;10.98;;
70303;SDS011;57712;48.752;11.348;2023-01-28T10:28:17;21.40;;;9.30;;
70303;SDS011;57712;48.752;11.348;2023-01-28T10:30:46;26.05;;;13.95;;
70303;SDS011;57712;48.752;11.348;2023-01-28T10:33:19;27.77;;;12.68;;
70303;SDS011;57712;48.752;11.348;2023-01-28T10:35:49;30.52;;;11.32;;
70303;SDS011;57712;48.752;11.348;2023-01-28T10:38:18;22.52;;;9.38;;
70303;SDS011;57712;48.752;11.348;2023-01-28T10:40:47;24.77;;;10.97;;
70303;SDS011;57712;48.752;11.348;2023-01-28T10:43:15;20.05;;;9.27;;
70303;SDS011;57712;48.752;11.348;2023-01-28T10:46:00;16.85;;;6.53;;
70303;SDS011;57712;48.752;11.348;2023-01-28T10:48:33;20.65;;;8.48;;
70303;SDS011;57712;48.752;11.348;2023-01-28T10:51:08;19.33;;;7.22;;
70303;SDS011;57712;48.752;11.348;2023-01-28T10:56:07;26.50;;;10.48;;
70303;SDS011;57712;48.752;11.348;2023-01-28T10:58:45;27.45;;;12.48;;
70303;SDS011;57712;48.752;11.348;2023-01-28T11:01:15;23.65;;;9.82;;
70303;SDS011;57712;48.752;11.348;2023-01-28T11:03:50;25.73;;;10.27;;
70303;SDS011;57712;48.752;11.348;2023-01-28T11:06:23;19.60;;;9.02;;
70303;SDS011;57712;48.752;11.348;2023-01-28T11:08:51;20.85;;;8.75;;
70303;SDS011;57712;48.752;11.348;2023-01-28T11:11:25;26.70;;;10.68;;
70303;SDS011;57712;48.752;11.348;2023-01-28T11:13:53;21.25;;;8.48;;
70303;SDS011;57712;48.752;11.348;2023-01-28T11:16:20;18.60;;;7.70;;
70303;SDS011;57712;48.752;11.348;2023-01-28T11:18:50;18.95;;;7.78;;
70303;SDS011;57712;48.752;11.348;2023-01-28T11:21:23;20.83;;;8.43;;
70303;SDS011;57712;48.752;11.348;2023-01-28T11:23:56;20.58;;;9.15;;
70303;SDS011;57712;48.752;11.348;2023-01-28T11:26:30;18.27;;;8.80;;
70303;SDS011;57712;48.752;11.348;2023-01-28T11:29:00;20.70;;;8.90;;
70303;SDS011;57712;48.752;11.348;2023-01-28T11:31:27;18.00;;;7.70;;
70303;SDS011;57712;48.752;11.348;2023-01-28T11:33:55;20.10;;;8.93;;
70303;SDS011;57712;48.752;11.348;2023-01-28T11:36:26;19.80;;;8.90;;
70303;SDS011;57712;48.752;11.348;2023-01-28T11:38:57;21.70;;;9.30;;
70303;SDS011;57712;48.752;11.348;2023-01-28T11:43:59;23.23;;;12.13;;
70303;SDS011;57712;48.752;11.348;2023-01-28T11:47:42;21.73;;;9.88;;
70303;SDS011;57712;48.752;11.348;2023-01-28T11:52:16;18.70;;;9.18;;
70303;SDS011;57712;48.752;11.348;2023-01-28T12:08:56;29.13;;;13.15;;
70303;SDS011;57712;48.752;11.348;2023-01-28T12:14:41;22.58;;;10.15;;
70303;SDS011;57712;48.752;11.348;2023-01-28T12:25:44;23.53;;;10.70;;
70303;SDS011;57712;48.752;11.348;2023-01-28T12:28:27;19.40;;;8.57;;
70303;SDS011;57712;48.752;11.348;2023-01-28T12:43:03;16.40;;;7.78;;
70303;SDS011;57712;48.752;11.348;2023-01-28T12:45:40;16.48;;;8.00;;
70303;SDS011;57712;48.752;11.348;2023-01-28T12:50:48;16.38;;;7.78;;
70303;SDS011;57712;48.752;11.348;2023-01-28T12:53:22;16.00;;;7.30;;
70303;SDS011;57712;48.752;11.348;2023-01-28T12:55:57;14.63;;;6.65;;
70303;SDS011;57712;48.752;11.348;2023-01-28T12:58:37;15.05;;;7.53;;
70303;SDS011;57712;48.752;11.348;2023-01-28T13:01:10;16.25;;;7.40;;
70303;SDS011;57712;48.752;11.348;2023-01-28T13:03:44;16.67;;;8.95;;
70303;SDS011;57712;48.752;11.348;2023-01-28T13:06:36;16.33;;;8.40;;
70303;SDS011;57712;48.752;11.348;2023-01-28T13:09:17;18.73;;;10.70;;
70303;SDS011;57712;48.752;11.348;2023-01-28T13:11:45;18.95;;;10.35;;
70303;SDS011;57712;48.752;11.348;2023-01-28T13:14:15;22.48;;;10.95;;
70303;SDS011;57712;48.752;11.348;2023-01-28T13:16:43;21.58;;;12.82;;
70303;SDS011;57712;48.752;11.348;2023-01-28T13:21:45;23.65;;;10.82;;
70303;SDS011;57712;48.752;11.348;2023-01-28T13:26:45;26.65;;;14.43;;
70303;SDS011;57712;48.752;11.348;2023-01-28T13:29:31;21.40;;;10.27;;
70303;SDS011;57712;48.752;11.348;2023-01-28T13:32:01;19.37;;;9.37;;
70303;SDS011;57712;48.752;11.348;2023-01-28T13:37:29;22.85;;;12.02;;
70303;SDS011;57712;48.752;11.348;2023-01-28T13:42:41;18.63;;;9.27;;
70303;SDS011;57712;48.752;11.348;2023-01-28T13:47:44;24.75;;;11.73;;
70303;SDS011;57712;48.752;11.348;2023-01-28T13:50:23;21.45;;;10.20;;
70303;SDS011;57712;48.752;11.348;2023-01-28T13:53:01;22.20;;;10.68;;
70303;SDS011;57712;48.752;11.348;2023-01-28T13:55:36;20.35;;;10.82;;
70303;SDS011;57712;48.752;11.348;2023-01-28T14:16:57;23.52;;;10.75;;
70303;SDS011;57712;48.752;11.348;2023-01-28T14:19:30;20.80;;;9.93;;
70303;SDS011;57712;48.752;11.348;2023-01-28T14:22:06;20.58;;;9.73;;
70303;SDS011;57712;48.752;11.348;2023-01-28T14:24:33;21.40;;;10.20;;
70303;SDS011;57712;48.752;11.348;2023-01-28T14:27:08;21.00;;;9.77;;
70303;SDS011;57712;48.752;11.348;2023-01-28T14:32:32;20.58;;;9.27;;
70303;SDS011;57712;48.752;11.348;2023-01-28T14:35:03;19.60;;;9.70;;
70303;SDS011;57712;48.752;11.348;2023-01-28T14:37:33;22.83;;;9.63;;
70303;SDS011;57712;48.752;11.348;2023-01-28T14:40:07;23.83;;;11.88;;
70303;SDS011;57712;48.752;11.348;2023-01-28T14:42:47;27.88;;;12.07;;
70303;SDS011;57712;48.752;11.348;2023-01-28T14:45:31;30.65;;;13.35;;
70303;SDS011;57712;48.752;11.348;2023-01-28T14:48:20;27.77;;;12.85;;
70303;SDS011;57712;48.752;11.348;2023-01-28T14:59:06;19.83;;;9.95;;
70303;SDS011;57712;48.752;11.348;2023-01-28T15:01:45;19.13;;;10.98;;
70303;SDS011;57712;48.752;11.348;2023-01-28T15:04:22;22.60;;;13.43;;
70303;SDS011;57712;48.752;11.348;2023-01-28T15:06:51;19.35;;;10.45;;
70303;SDS011;57712;48.752;11.348;2023-01-28T15:09:18;19.65;;;9.65;;
70303;SDS011;57712;48.752;11.348;2023-01-28T15:11:45;20.88;;;10.27;;
70303;SDS011;57712;48.752;11.348;2023-01-28T15:14:20;20.95;;;10.70;;
70303;SDS011;57712;48.752;11.348;2023-01-28T15:16:51;19.67;;;10.03;;
70303;SDS011;57712;48.752;11.348;2023-01-28T15:19:21;21.98;;;10.75;;
70303;SDS011;57712;48.752;11.348;2023-01-28T15:21:55;22.23;;;11.73;;
70303;SDS011;57712;48.752;11.348;2023-01-28T15:24:24;22.08;;;10.30;;
70303;SDS011;57712;48.752;11.348;2023-01-28T15:26:51;21.30;;;10.82;;
70303;SDS011;57712;48.752;11.348;2023-01-28T15:29:25;18.00;;;8.30;;
70303;SDS011;57712;48.752;11.348;2023-01-28T15:31:56;19.88;;;8.63;;
70303;SDS011;57712;48.752;11.348;2023-01-28T15:34:23;16.77;;;8.65;;
70303;SDS011;57712;48.752;11.348;2023-01-28T15:36:56;18.20;;;8.73;;
70303;SDS011;57712;48.752;11.348;2023-01-28T15:39:25;20.52;;;10.32;;
70303;SDS011;57712;48.752;11.348;2023-01-28T15:42:00;19.33;;;9.33;;
70303;SDS011;57712;48.752;11.348;2023-01-28T15:47:01;15.60;;;7.68;;
70303;SDS011;57712;48.752;11.348;2023-01-28T15:49:37;15.02;;;8.07;;
70303;SDS011;57712;48.752;11.348;2023-01-28T15:52:08;17.42;;;8.85;;
70303;SDS011;57712;48.752;11.348;2023-01-28T15:54:38;17.17;;;8.90;;
70303;SDS011;57712;48.752;11.348;2023-01-28T15:57:08;15.85;;;8.10;;
70303;SDS011;57712;48.752;11.348;2023-01-28T15:59:36;17.52;;;8.45;;
70303;SDS011;57712;48.752;11.348;2023-01-28T16:02:17;18.67;;;9.68;;
70303;SDS011;57712;48.752;11.348;2023-01-28T16:04:57;20.30;;;9.05;;
70303;SDS011;57712;48.752;11.348;2023-01-28T16:07:28;17.73;;;9.07;;
70303;SDS011;57712;48.752;11.348;2023-01-28T16:09:58;15.70;;;7.70;;
70303;SDS011;57712;48.752;11.348;2023-01-28T16:12:27;22.50;;;13.20;;
70303;SDS011;57712;48.752;11.348;2023-01-28T16:14:58;20.52;;;11.27;;
70303;SDS011;57712;48.752;11.348;2023-01-28T16:17:27;20.38;;;12.52;;
70303;SDS011;57712;48.752;11.348;2023-01-28T16:20:01;19.42;;;9.48;;
70303;SDS011;57712;48.752;11.348;2023-01-28T16:22:39;18.75;;;9.63;;
70303;SDS011;57712;48.752;11.348;2023-01-28T16:27:47;22.52;;;10.77;;
70303;SDS011;57712;48.752;11.348;2023-01-28T16:30:14;20.25;;;10.75;;
70303;SDS011;57712;48.752;11.348;2023-01-28T16:32:41;19.23;;;10.07;;
70303;SDS011;57712;48.752;11.348;2023-01-28T16:35:13;18.45;;;9.95;;
70303;SDS011;57712;48.752;11.348;2023-01-28T16:37:51;18.42;;;9.82;;
70303;SDS011;57712;48.752;11.348;2023-01-28T16:40:18;18.13;;;9.40;;
70303;SDS011;57712;48.752;11.348;2023-01-28T16:42:47;18.67;;;9.15;;
70303;SDS011;57712;48.752;11.348;2023-01-28T16:45:16;19.97;;;10.77;;
70303;SDS011;57712;48.752;11.348;2023-01-28T16:47:45;20.60;;;11.85;;
70303;SDS011;57712;48.752;11.348;2023-01-28T16:50:12;23.88;;;12.15;;
70303;SDS011;57712;48.752;11.348;2023-01-28T16:52:42;21.58;;;11.98;;
70303;SDS011;57712;48.752;11.348;2023-01-28T16:55:12;23.10;;;12.02;;